Anthony, Idaho
Current Conditions -  °F | °C
As of 11:53 PM on Saturday 20 Dec 2014 (Local Time) from KRXE Reporting Station
Unknown Precip Unknown Precip  
Wind Chill: 23°   Ceiling: 700
Heat Index: 33°   Visibility: 10mi
Dew Point: 33°   Wind: 15mph
Humidity: 100%   Direction: 200°SSW
Pressure: 29.87"   Gusts: 21mph
Location:  44.2887°N, 111.507°W
Report Text: KRXE 210653Z AUTO 20013G18KT 10SM UP OVC007 01/01 A2987 RMK AO2 UPE19B41SNB19E41 SLP134 P0001 T00060006 400220000
Loading
Personal Weather Stations






























Interactive Weather Map New forecast layout! Learn more

10-Day Weather Forecast

Advertisements
Track Severe Weather on mobile